sensor_id;sensor_type;location;lat;lon;timestamp;P1;durP1;ratioP1;P2;durP2;ratioP2
60464;SDS011;46314;52.392;9.758;2022-12-20T00:01:43;19.77;;;13.70;;
60464;SDS011;46314;52.392;9.758;2022-12-20T00:04:10;22.17;;;14.25;;
60464;SDS011;46314;52.392;9.758;2022-12-20T00:06:37;20.33;;;12.68;;
60464;SDS011;46314;52.392;9.758;2022-12-20T00:09:05;19.33;;;14.90;;
60464;SDS011;46314;52.392;9.758;2022-12-20T00:11:33;18.85;;;13.88;;
60464;SDS011;46314;52.392;9.758;2022-12-20T00:14:03;17.38;;;13.82;;
60464;SDS011;46314;52.392;9.758;2022-12-20T00:16:30;17.85;;;12.80;;
60464;SDS011;46314;52.392;9.758;2022-12-20T00:18:57;19.52;;;14.15;;
60464;SDS011;46314;52.392;9.758;2022-12-20T00:21:25;19.88;;;14.57;;
60464;SDS011;46314;52.392;9.758;2022-12-20T00:23:54;23.30;;;14.38;;
60464;SDS011;46314;52.392;9.758;2022-12-20T00:26:23;21.33;;;14.38;;
60464;SDS011;46314;52.392;9.758;2022-12-20T00:28:51;17.35;;;12.18;;
60464;SDS011;46314;52.392;9.758;2022-12-20T00:31:19;21.70;;;14.25;;
60464;SDS011;46314;52.392;9.758;2022-12-20T00:33:47;18.95;;;14.02;;
60464;SDS011;46314;52.392;9.758;2022-12-20T00:36:16;19.08;;;14.35;;
60464;SDS011;46314;52.392;9.758;2022-12-20T00:38:43;20.88;;;14.00;;
60464;SDS011;46314;52.392;9.758;2022-12-20T00:41:15;20.45;;;14.57;;
60464;SDS011;46314;52.392;9.758;2022-12-20T00:43:43;21.15;;;15.13;;
60464;SDS011;46314;52.392;9.758;2022-12-20T00:46:10;21.80;;;15.35;;
60464;SDS011;46314;52.392;9.758;2022-12-20T00:48:38;21.55;;;13.93;;
60464;SDS011;46314;52.392;9.758;2022-12-20T00:51:05;18.38;;;12.52;;
60464;SDS011;46314;52.392;9.758;2022-12-20T00:53:33;18.42;;;14.30;;
60464;SDS011;46314;52.392;9.758;2022-12-20T00:56:00;22.98;;;15.40;;
60464;SDS011;46314;52.392;9.758;2022-12-20T00:58:30;22.15;;;15.73;;
60464;SDS011;46314;52.392;9.758;2022-12-20T01:00:57;19.95;;;13.98;;
60464;SDS011;46314;52.392;9.758;2022-12-20T01:03:24;18.25;;;13.30;;
60464;SDS011;46314;52.392;9.758;2022-12-20T01:05:52;17.40;;;13.85;;
60464;SDS011;46314;52.392;9.758;2022-12-20T01:08:19;20.08;;;13.05;;
60464;SDS011;46314;52.392;9.758;2022-12-20T01:10:47;23.88;;;15.30;;
60464;SDS011;46314;52.392;9.758;2022-12-20T01:13:23;19.80;;;13.90;;
60464;SDS011;46314;52.392;9.758;2022-12-20T01:15:52;20.65;;;14.40;;
60464;SDS011;46314;52.392;9.758;2022-12-20T01:18:18;22.00;;;15.27;;
60464;SDS011;46314;52.392;9.758;2022-12-20T01:20:45;17.60;;;13.15;;
60464;SDS011;46314;52.392;9.758;2022-12-20T01:23:11;20.65;;;14.48;;
60464;SDS011;46314;52.392;9.758;2022-12-20T01:25:38;19.83;;;13.82;;
60464;SDS011;46314;52.392;9.758;2022-12-20T01:28:04;19.27;;;13.40;;
60464;SDS011;46314;52.392;9.758;2022-12-20T01:30:31;19.42;;;14.13;;
60464;SDS011;46314;52.392;9.758;2022-12-20T01:32:59;20.65;;;14.05;;
60464;SDS011;46314;52.392;9.758;2022-12-20T01:35:25;19.27;;;13.93;;
60464;SDS011;46314;52.392;9.758;2022-12-20T01:37:52;22.58;;;14.77;;
60464;SDS011;46314;52.392;9.758;2022-12-20T01:40:18;20.58;;;15.23;;
60464;SDS011;46314;52.392;9.758;2022-12-20T01:42:45;19.60;;;13.27;;
60464;SDS011;46314;52.392;9.758;2022-12-20T01:45:12;18.88;;;14.18;;
60464;SDS011;46314;52.392;9.758;2022-12-20T01:50:13;19.05;;;12.77;;
60464;SDS011;46314;52.392;9.758;2022-12-20T01:52:40;18.83;;;13.57;;
60464;SDS011;46314;52.392;9.758;2022-12-20T01:55:09;19.85;;;13.75;;
60464;SDS011;46314;52.392;9.758;2022-12-20T01:57:41;16.92;;;12.30;;
60464;SDS011;46314;52.392;9.758;2022-12-20T02:00:11;18.73;;;13.68;;
60464;SDS011;46314;52.392;9.758;2022-12-20T02:02:39;16.70;;;12.63;;
60464;SDS011;46314;52.392;9.758;2022-12-20T02:05:07;19.38;;;13.65;;
60464;SDS011;46314;52.392;9.758;2022-12-20T02:07:35;18.98;;;12.80;;
60464;SDS011;46314;52.392;9.758;2022-12-20T02:10:04;18.73;;;13.43;;
60464;SDS011;46314;52.392;9.758;2022-12-20T02:12:33;19.63;;;13.50;;
60464;SDS011;46314;52.392;9.758;2022-12-20T02:15:09;19.27;;;13.23;;
60464;SDS011;46314;52.392;9.758;2022-12-20T02:17:50;17.08;;;12.38;;
60464;SDS011;46314;52.392;9.758;2022-12-20T02:20:36;21.23;;;13.70;;
60464;SDS011;46314;52.392;9.758;2022-12-20T02:23:20;23.20;;;13.30;;
60464;SDS011;46314;52.392;9.758;2022-12-20T02:26:05;18.67;;;13.20;;
60464;SDS011;46314;52.392;9.758;2022-12-20T02:28:53;20.05;;;12.32;;
60464;SDS011;46314;52.392;9.758;2022-12-20T02:31:32;19.00;;;13.98;;
60464;SDS011;46314;52.392;9.758;2022-12-20T02:34:03;20.17;;;13.15;;
60464;SDS011;46314;52.392;9.758;2022-12-20T02:36:32;20.13;;;13.20;;
60464;SDS011;46314;52.392;9.758;2022-12-20T02:38:58;19.52;;;12.00;;
60464;SDS011;46314;52.392;9.758;2022-12-20T02:41:25;20.25;;;13.25;;
60464;SDS011;46314;52.392;9.758;2022-12-20T02:43:56;19.10;;;12.90;;
60464;SDS011;46314;52.392;9.758;2022-12-20T02:46:26;16.05;;;12.15;;
60464;SDS011;46314;52.392;9.758;2022-12-20T02:48:55;15.80;;;12.32;;
60464;SDS011;46314;52.392;9.758;2022-12-20T02:51:26;19.75;;;13.57;;
60464;SDS011;46314;52.392;9.758;2022-12-20T02:53:55;18.15;;;13.48;;
60464;SDS011;46314;52.392;9.758;2022-12-20T02:56:25;16.45;;;11.40;;
60464;SDS011;46314;52.392;9.758;2022-12-20T02:58:57;20.45;;;12.13;;
60464;SDS011;46314;52.392;9.758;2022-12-20T03:01:29;19.25;;;12.05;;
60464;SDS011;46314;52.392;9.758;2022-12-20T03:04:00;16.77;;;11.48;;
60464;SDS011;46314;52.392;9.758;2022-12-20T03:06:28;17.65;;;12.23;;
60464;SDS011;46314;52.392;9.758;2022-12-20T03:08:55;19.33;;;12.65;;
60464;SDS011;46314;52.392;9.758;2022-12-20T03:11:22;17.42;;;12.63;;
60464;SDS011;46314;52.392;9.758;2022-12-20T03:13:48;17.30;;;12.38;;
60464;SDS011;46314;52.392;9.758;2022-12-20T03:16:15;16.25;;;11.30;;
60464;SDS011;46314;52.392;9.758;2022-12-20T03:18:41;16.95;;;11.90;;
60464;SDS011;46314;52.392;9.758;2022-12-20T03:21:09;14.60;;;11.55;;
60464;SDS011;46314;52.392;9.758;2022-12-20T03:23:35;17.58;;;11.75;;
60464;SDS011;46314;52.392;9.758;2022-12-20T03:26:02;17.27;;;12.52;;
60464;SDS011;46314;52.392;9.758;2022-12-20T03:28:28;15.77;;;11.90;;
60464;SDS011;46314;52.392;9.758;2022-12-20T03:30:55;17.38;;;11.70;;
60464;SDS011;46314;52.392;9.758;2022-12-20T03:33:22;20.98;;;13.10;;
60464;SDS011;46314;52.392;9.758;2022-12-20T03:35:48;15.90;;;11.38;;
60464;SDS011;46314;52.392;9.758;2022-12-20T03:38:16;17.67;;;12.20;;
60464;SDS011;46314;52.392;9.758;2022-12-20T03:40:42;19.27;;;12.48;;
60464;SDS011;46314;52.392;9.758;2022-12-20T03:43:09;15.52;;;12.13;;
60464;SDS011;46314;52.392;9.758;2022-12-20T03:45:35;18.05;;;12.70;;
60464;SDS011;46314;52.392;9.758;2022-12-20T03:48:02;17.30;;;13.13;;
60464;SDS011;46314;52.392;9.758;2022-12-20T03:50:28;17.95;;;12.50;;
60464;SDS011;46314;52.392;9.758;2022-12-20T03:52:55;16.67;;;12.10;;
60464;SDS011;46314;52.392;9.758;2022-12-20T03:55:22;15.15;;;12.18;;
60464;SDS011;46314;52.392;9.758;2022-12-20T03:57:49;14.98;;;11.98;;
60464;SDS011;46314;52.392;9.758;2022-12-20T04:00:16;16.42;;;11.98;;
60464;SDS011;46314;52.392;9.758;2022-12-20T04:02:43;18.15;;;11.55;;
60464;SDS011;46314;52.392;9.758;2022-12-20T04:05:10;15.02;;;11.65;;
60464;SDS011;46314;52.392;9.758;2022-12-20T04:07:36;15.88;;;11.32;;
60464;SDS011;46314;52.392;9.758;2022-12-20T04:10:04;16.17;;;12.73;;
60464;SDS011;46314;52.392;9.758;2022-12-20T04:12:32;16.77;;;12.32;;
60464;SDS011;46314;52.392;9.758;2022-12-20T04:14:59;18.05;;;11.82;;
60464;SDS011;46314;52.392;9.758;2022-12-20T04:17:25;16.88;;;12.32;;
60464;SDS011;46314;52.392;9.758;2022-12-20T04:19:52;18.58;;;12.45;;
60464;SDS011;46314;52.392;9.758;2022-12-20T04:22:18;15.27;;;11.70;;
60464;SDS011;46314;52.392;9.758;2022-12-20T04:24:45;14.18;;;12.05;;
60464;SDS011;46314;52.392;9.758;2022-12-20T04:27:11;17.17;;;12.32;;
60464;SDS011;46314;52.392;9.758;2022-12-20T04:29:39;17.38;;;12.40;;
60464;SDS011;46314;52.392;9.758;2022-12-20T04:32:05;14.98;;;11.65;;
60464;SDS011;46314;52.392;9.758;2022-12-20T04:34:32;16.77;;;11.77;;
60464;SDS011;46314;52.392;9.758;2022-12-20T04:36:58;15.88;;;11.85;;
60464;SDS011;46314;52.392;9.758;2022-12-20T04:39:25;16.35;;;12.93;;
60464;SDS011;46314;52.392;9.758;2022-12-20T04:41:51;17.70;;;12.60;;
60464;SDS011;46314;52.392;9.758;2022-12-20T04:44:17;18.33;;;12.82;;
60464;SDS011;46314;52.392;9.758;2022-12-20T04:46:45;14.98;;;12.25;;
60464;SDS011;46314;52.392;9.758;2022-12-20T04:49:12;17.60;;;12.93;;
60464;SDS011;46314;52.392;9.758;2022-12-20T04:51:38;15.48;;;11.75;;
60464;SDS011;46314;52.392;9.758;2022-12-20T04:54:05;16.88;;;12.65;;
60464;SDS011;46314;52.392;9.758;2022-12-20T04:56:31;16.58;;;11.50;;
60464;SDS011;46314;52.392;9.758;2022-12-20T04:58:58;18.63;;;13.65;;
60464;SDS011;46314;52.392;9.758;2022-12-20T05:01:24;19.15;;;13.32;;
60464;SDS011;46314;52.392;9.758;2022-12-20T05:03:52;16.10;;;11.98;;
60464;SDS011;46314;52.392;9.758;2022-12-20T05:06:20;16.38;;;12.35;;
60464;SDS011;46314;52.392;9.758;2022-12-20T05:08:46;16.80;;;12.25;;
60464;SDS011;46314;52.392;9.758;2022-12-20T05:11:13;18.90;;;13.43;;
60464;SDS011;46314;52.392;9.758;2022-12-20T05:13:39;16.58;;;13.38;;
60464;SDS011;46314;52.392;9.758;2022-12-20T05:16:06;16.80;;;12.38;;
60464;SDS011;46314;52.392;9.758;2022-12-20T05:18:33;18.23;;;13.15;;
60464;SDS011;46314;52.392;9.758;2022-12-20T05:21:01;16.98;;;13.18;;
60464;SDS011;46314;52.392;9.758;2022-12-20T05:23:28;17.48;;;12.88;;
60464;SDS011;46314;52.392;9.758;2022-12-20T05:25:55;18.40;;;12.63;;
60464;SDS011;46314;52.392;9.758;2022-12-20T05:28:21;15.60;;;11.80;;
60464;SDS011;46314;52.392;9.758;2022-12-20T05:30:48;18.73;;;13.98;;
60464;SDS011;46314;52.392;9.758;2022-12-20T05:33:14;19.40;;;13.40;;
60464;SDS011;46314;52.392;9.758;2022-12-20T05:35:41;18.67;;;13.25;;
60464;SDS011;46314;52.392;9.758;2022-12-20T05:38:09;18.48;;;13.95;;
60464;SDS011;46314;52.392;9.758;2022-12-20T05:40:35;16.52;;;12.48;;
60464;SDS011;46314;52.392;9.758;2022-12-20T05:43:02;18.75;;;13.70;;
60464;SDS011;46314;52.392;9.758;2022-12-20T05:45:28;14.43;;;12.10;;
60464;SDS011;46314;52.392;9.758;2022-12-20T05:47:54;18.23;;;13.90;;
60464;SDS011;46314;52.392;9.758;2022-12-20T05:50:21;18.20;;;12.55;;
60464;SDS011;46314;52.392;9.758;2022-12-20T05:52:47;16.67;;;13.20;;
60464;SDS011;46314;52.392;9.758;2022-12-20T05:55:15;18.08;;;13.77;;
60464;SDS011;46314;52.392;9.758;2022-12-20T05:57:42;17.05;;;12.48;;
60464;SDS011;46314;52.392;9.758;2022-12-20T06:00:09;18.35;;;12.27;;
60464;SDS011;46314;52.392;9.758;2022-12-20T06:02:37;17.67;;;13.15;;
60464;SDS011;46314;52.392;9.758;2022-12-20T06:05:04;18.60;;;14.23;;
60464;SDS011;46314;52.392;9.758;2022-12-20T06:07:31;18.20;;;14.00;;
60464;SDS011;46314;52.392;9.758;2022-12-20T06:09:58;19.70;;;13.82;;
60464;SDS011;46314;52.392;9.758;2022-12-20T06:12:26;17.95;;;13.40;;
60464;SDS011;46314;52.392;9.758;2022-12-20T06:14:52;17.48;;;12.35;;
60464;SDS011;46314;52.392;9.758;2022-12-20T06:17:18;19.23;;;12.95;;
60464;SDS011;46314;52.392;9.758;2022-12-20T06:19:45;14.77;;;11.82;;
60464;SDS011;46314;52.392;9.758;2022-12-20T06:22:11;18.10;;;12.30;;
60464;SDS011;46314;52.392;9.758;2022-12-20T06:24:38;13.57;;;10.48;;
60464;SDS011;46314;52.392;9.758;2022-12-20T06:27:13;20.75;;;13.82;;
60464;SDS011;46314;52.392;9.758;2022-12-20T06:29:41;17.33;;;12.93;;
60464;SDS011;46314;52.392;9.758;2022-12-20T06:32:07;16.42;;;11.95;;
60464;SDS011;46314;52.392;9.758;2022-12-20T06:34:34;18.10;;;12.85;;
60464;SDS011;46314;52.392;9.758;2022-12-20T06:37:00;18.30;;;13.15;;
60464;SDS011;46314;52.392;9.758;2022-12-20T06:39:27;19.55;;;12.57;;
60464;SDS011;46314;52.392;9.758;2022-12-20T06:41:53;17.38;;;13.07;;
60464;SDS011;46314;52.392;9.758;2022-12-20T06:44:19;18.48;;;12.85;;
60464;SDS011;46314;52.392;9.758;2022-12-20T06:46:47;17.92;;;12.35;;
60464;SDS011;46314;52.392;9.758;2022-12-20T06:49:14;19.33;;;12.98;;
60464;SDS011;46314;52.392;9.758;2022-12-20T06:51:40;17.38;;;12.45;;
60464;SDS011;46314;52.392;9.758;2022-12-20T06:54:06;15.63;;;11.80;;
60464;SDS011;46314;52.392;9.758;2022-12-20T06:56:33;18.90;;;13.57;;
60464;SDS011;46314;52.392;9.758;2022-12-20T06:59:06;17.67;;;13.25;;
60464;SDS011;46314;52.392;9.758;2022-12-20T07:01:33;18.90;;;11.32;;
60464;SDS011;46314;52.392;9.758;2022-12-20T07:04:00;17.33;;;12.63;;
60464;SDS011;46314;52.392;9.758;2022-12-20T07:06:27;17.92;;;11.90;;
60464;SDS011;46314;52.392;9.758;2022-12-20T07:08:53;14.73;;;11.65;;
60464;SDS011;46314;52.392;9.758;2022-12-20T07:11:20;17.63;;;12.93;;
60464;SDS011;46314;52.392;9.758;2022-12-20T07:13:46;16.23;;;12.15;;
60464;SDS011;46314;52.392;9.758;2022-12-20T07:16:13;16.35;;;11.98;;
60464;SDS011;46314;52.392;9.758;2022-12-20T07:18:39;17.42;;;12.95;;
60464;SDS011;46314;52.392;9.758;2022-12-20T07:21:07;16.15;;;12.45;;
60464;SDS011;46314;52.392;9.758;2022-12-20T07:23:34;16.67;;;11.85;;
60464;SDS011;46314;52.392;9.758;2022-12-20T07:26:02;16.10;;;11.48;;
60464;SDS011;46314;52.392;9.758;2022-12-20T07:28:28;16.60;;;13.35;;
60464;SDS011;46314;52.392;9.758;2022-12-20T07:30:58;19.23;;;13.85;;
60464;SDS011;46314;52.392;9.758;2022-12-20T07:33:25;16.05;;;11.90;;
60464;SDS011;46314;52.392;9.758;2022-12-20T07:35:58;18.67;;;13.00;;
60464;SDS011;46314;52.392;9.758;2022-12-20T07:38:26;14.35;;;12.43;;
60464;SDS011;46314;52.392;9.758;2022-12-20T07:40:54;14.32;;;11.30;;
60464;SDS011;46314;52.392;9.758;2022-12-20T07:43:20;17.25;;;12.18;;
60464;SDS011;46314;52.392;9.758;2022-12-20T07:45:47;15.05;;;11.95;;
60464;SDS011;46314;52.392;9.758;2022-12-20T07:48:13;18.77;;;12.50;;
60464;SDS011;46314;52.392;9.758;2022-12-20T07:50:46;14.82;;;11.68;;
60464;SDS011;46314;52.392;9.758;2022-12-20T07:53:13;24.27;;;13.00;;
60464;SDS011;46314;52.392;9.758;2022-12-20T07:55:41;17.23;;;12.25;;
60464;SDS011;46314;52.392;9.758;2022-12-20T07:58:08;18.38;;;13.13;;
60464;SDS011;46314;52.392;9.758;2022-12-20T08:00:36;15.13;;;11.98;;
60464;SDS011;46314;52.392;9.758;2022-12-20T08:03:04;16.35;;;11.80;;
60464;SDS011;46314;52.392;9.758;2022-12-20T08:05:34;15.32;;;12.13;;
60464;SDS011;46314;52.392;9.758;2022-12-20T08:08:03;16.85;;;11.25;;
60464;SDS011;46314;52.392;9.758;2022-12-20T08:10:30;15.82;;;11.80;;
60464;SDS011;46314;52.392;9.758;2022-12-20T08:12:58;17.63;;;13.55;;
60464;SDS011;46314;52.392;9.758;2022-12-20T08:15:25;15.48;;;11.77;;
60464;SDS011;46314;52.392;9.758;2022-12-20T08:17:53;15.63;;;11.85;;
60464;SDS011;46314;52.392;9.758;2022-12-20T08:20:20;14.85;;;11.38;;
60464;SDS011;46314;52.392;9.758;2022-12-20T08:22:46;14.80;;;11.55;;
60464;SDS011;46314;52.392;9.758;2022-12-20T08:25:13;14.75;;;11.35;;
60464;SDS011;46314;52.392;9.758;2022-12-20T08:27:39;16.45;;;11.82;;
60464;SDS011;46314;52.392;9.758;2022-12-20T08:30:08;17.58;;;11.90;;
60464;SDS011;46314;52.392;9.758;2022-12-20T08:32:35;14.93;;;11.25;;
60464;SDS011;46314;52.392;9.758;2022-12-20T08:35:02;12.85;;;11.07;;
60464;SDS011;46314;52.392;9.758;2022-12-20T08:37:29;14.38;;;10.55;;
60464;SDS011;46314;52.392;9.758;2022-12-20T08:39:55;14.48;;;11.40;;
60464;SDS011;46314;52.392;9.758;2022-12-20T08:42:22;15.10;;;11.35;;
60464;SDS011;46314;52.392;9.758;2022-12-20T08:44:48;18.02;;;12.20;;
60464;SDS011;46314;52.392;9.758;2022-12-20T08:47:16;15.48;;;10.57;;
60464;SDS011;46314;52.392;9.758;2022-12-20T08:49:43;15.98;;;10.73;;
60464;SDS011;46314;52.392;9.758;2022-12-20T08:52:13;15.32;;;10.77;;
60464;SDS011;46314;52.392;9.758;2022-12-20T08:54:39;15.88;;;10.15;;
60464;SDS011;46314;52.392;9.758;2022-12-20T08:57:06;12.23;;;10.27;;
60464;SDS011;46314;52.392;9.758;2022-12-20T08:59:33;15.57;;;9.82;;
60464;SDS011;46314;52.392;9.758;2022-12-20T09:01:59;12.75;;;10.43;;
60464;SDS011;46314;52.392;9.758;2022-12-20T09:04:27;13.55;;;10.70;;
60464;SDS011;46314;52.392;9.758;2022-12-20T09:06:54;15.07;;;10.70;;
60464;SDS011;46314;52.392;9.758;2022-12-20T09:09:20;12.10;;;10.32;;
60464;SDS011;46314;52.392;9.758;2022-12-20T09:11:47;12.13;;;9.35;;
60464;SDS011;46314;52.392;9.758;2022-12-20T09:14:13;12.57;;;9.80;;
60464;SDS011;46314;52.392;9.758;2022-12-20T09:16:40;12.32;;;9.63;;
60464;SDS011;46314;52.392;9.758;2022-12-20T09:19:06;14.70;;;10.68;;
60464;SDS011;46314;52.392;9.758;2022-12-20T09:21:34;10.95;;;9.27;;
60464;SDS011;46314;52.392;9.758;2022-12-20T09:24:00;13.70;;;9.98;;
60464;SDS011;46314;52.392;9.758;2022-12-20T09:26:27;13.38;;;9.38;;
60464;SDS011;46314;52.392;9.758;2022-12-20T09:28:54;12.63;;;9.38;;
60464;SDS011;46314;52.392;9.758;2022-12-20T09:31:21;14.93;;;10.00;;
60464;SDS011;46314;52.392;9.758;2022-12-20T09:33:49;10.85;;;9.23;;
60464;SDS011;46314;52.392;9.758;2022-12-20T09:36:19;13.98;;;9.57;;
60464;SDS011;46314;52.392;9.758;2022-12-20T09:38:48;16.15;;;9.85;;
60464;SDS011;46314;52.392;9.758;2022-12-20T09:41:18;11.27;;;9.13;;
60464;SDS011;46314;52.392;9.758;2022-12-20T09:43:49;13.88;;;9.77;;
60464;SDS011;46314;52.392;9.758;2022-12-20T09:46:16;11.52;;;9.10;;
60464;SDS011;46314;52.392;9.758;2022-12-20T09:48:43;13.52;;;9.93;;
60464;SDS011;46314;52.392;9.758;2022-12-20T09:51:13;11.68;;;8.68;;
60464;SDS011;46314;52.392;9.758;2022-12-20T09:53:54;13.35;;;9.07;;
60464;SDS011;46314;52.392;9.758;2022-12-20T09:56:29;11.95;;;8.45;;
60464;SDS011;46314;52.392;9.758;2022-12-20T09:59:00;11.38;;;8.02;;
60464;SDS011;46314;52.392;9.758;2022-12-20T10:01:29;12.27;;;9.23;;
60464;SDS011;46314;52.392;9.758;2022-12-20T10:04:04;12.45;;;8.13;;
60464;SDS011;46314;52.392;9.758;2022-12-20T10:06:39;11.77;;;8.68;;
60464;SDS011;46314;52.392;9.758;2022-12-20T10:09:25;10.25;;;8.10;;
60464;SDS011;46314;52.392;9.758;2022-12-20T10:12:08;12.02;;;8.63;;
60464;SDS011;46314;52.392;9.758;2022-12-20T10:14:49;11.32;;;7.75;;
60464;SDS011;46314;52.392;9.758;2022-12-20T10:17:25;10.80;;;7.72;;
60464;SDS011;46314;52.392;9.758;2022-12-20T10:20:12;11.05;;;8.77;;
60464;SDS011;46314;52.392;9.758;2022-12-20T10:22:50;11.10;;;7.45;;
60464;SDS011;46314;52.392;9.758;2022-12-20T10:25:26;11.43;;;8.52;;
60464;SDS011;46314;52.392;9.758;2022-12-20T10:27:55;9.45;;;7.80;;
60464;SDS011;46314;52.392;9.758;2022-12-20T10:30:23;9.43;;;7.78;;
60464;SDS011;46314;52.392;9.758;2022-12-20T10:32:54;13.25;;;8.43;;
60464;SDS011;46314;52.392;9.758;2022-12-20T10:35:23;10.18;;;7.65;;
60464;SDS011;46314;52.392;9.758;2022-12-20T10:37:56;11.98;;;8.27;;
60464;SDS011;46314;52.392;9.758;2022-12-20T10:40:36;11.70;;;7.95;;
60464;SDS011;46314;52.392;9.758;2022-12-20T10:43:24;11.88;;;7.47;;
60464;SDS011;46314;52.392;9.758;2022-12-20T10:45:55;12.68;;;7.82;;
60464;SDS011;46314;52.392;9.758;2022-12-20T10:48:28;9.48;;;7.28;;
60464;SDS011;46314;52.392;9.758;2022-12-20T10:50:56;8.63;;;7.43;;
60464;SDS011;46314;52.392;9.758;2022-12-20T10:53:24;9.45;;;7.47;;
60464;SDS011;46314;52.392;9.758;2022-12-20T10:55:52;9.75;;;7.03;;
60464;SDS011;46314;52.392;9.758;2022-12-20T10:58:21;11.02;;;8.00;;
60464;SDS011;46314;52.392;9.758;2022-12-20T11:01:10;8.38;;;6.85;;
60464;SDS011;46314;52.392;9.758;2022-12-20T11:06:26;9.77;;;6.72;;
60464;SDS011;46314;52.392;9.758;2022-12-20T11:11:59;9.95;;;6.78;;
60464;SDS011;46314;52.392;9.758;2022-12-20T11:14:27;7.45;;;6.25;;
60464;SDS011;46314;52.392;9.758;2022-12-20T11:17:04;7.10;;;5.97;;
60464;SDS011;46314;52.392;9.758;2022-12-20T11:19:51;9.73;;;6.45;;
60464;SDS011;46314;52.392;9.758;2022-12-20T11:22:29;10.70;;;6.50;;
60464;SDS011;46314;52.392;9.758;2022-12-20T11:25:06;9.82;;;6.95;;
60464;SDS011;46314;52.392;9.758;2022-12-20T11:27:48;9.52;;;6.13;;
60464;SDS011;46314;52.392;9.758;2022-12-20T11:30:20;10.88;;;7.28;;
60464;SDS011;46314;52.392;9.758;2022-12-20T11:32:59;9.82;;;6.53;;
60464;SDS011;46314;52.392;9.758;2022-12-20T11:35:41;8.82;;;7.10;;
60464;SDS011;46314;52.392;9.758;2022-12-20T11:38:18;7.82;;;6.25;;
60464;SDS011;46314;52.392;9.758;2022-12-20T11:40:57;8.15;;;6.35;;
60464;SDS011;46314;52.392;9.758;2022-12-20T11:43:43;9.63;;;6.45;;
60464;SDS011;46314;52.392;9.758;2022-12-20T11:46:46;7.72;;;6.30;;
60464;SDS011;46314;52.392;9.758;2022-12-20T11:49:32;8.75;;;6.45;;
60464;SDS011;46314;52.392;9.758;2022-12-20T11:52:12;10.85;;;7.13;;
60464;SDS011;46314;52.392;9.758;2022-12-20T11:54:52;8.10;;;5.80;;
60464;SDS011;46314;52.392;9.758;2022-12-20T11:57:30;7.53;;;5.88;;
60464;SDS011;46314;52.392;9.758;2022-12-20T12:00:23;9.93;;;7.00;;
60464;SDS011;46314;52.392;9.758;2022-12-20T12:02:52;10.48;;;5.97;;
60464;SDS011;46314;52.392;9.758;2022-12-20T12:05:25;7.90;;;6.25;;
60464;SDS011;46314;52.392;9.758;2022-12-20T12:07:57;8.40;;;6.68;;
60464;SDS011;46314;52.392;9.758;2022-12-20T12:10:28;7.82;;;6.25;;
60464;SDS011;46314;52.392;9.758;2022-12-20T12:12:59;6.68;;;5.45;;
60464;SDS011;46314;52.392;9.758;2022-12-20T12:15:33;9.23;;;6.45;;
60464;SDS011;46314;52.392;9.758;2022-12-20T12:18:06;9.32;;;6.28;;
60464;SDS011;46314;52.392;9.758;2022-12-20T12:20:44;8.90;;;6.07;;
60464;SDS011;46314;52.392;9.758;2022-12-20T12:25:46;7.53;;;5.95;;
60464;SDS011;46314;52.392;9.758;2022-12-20T12:28:13;8.27;;;5.50;;
60464;SDS011;46314;52.392;9.758;2022-12-20T12:30:42;9.18;;;5.22;;
60464;SDS011;46314;52.392;9.758;2022-12-20T12:33:14;8.63;;;5.37;;
60464;SDS011;46314;52.392;9.758;2022-12-20T12:35:54;6.72;;;4.85;;
60464;SDS011;46314;52.392;9.758;2022-12-20T12:38:42;5.97;;;4.63;;
60464;SDS011;46314;52.392;9.758;2022-12-20T12:41:39;8.65;;;4.93;;
60464;SDS011;46314;52.392;9.758;2022-12-20T12:44:31;7.55;;;4.93;;
60464;SDS011;46314;52.392;9.758;2022-12-20T12:47:09;6.38;;;4.38;;
60464;SDS011;46314;52.392;9.758;2022-12-20T12:49:41;9.52;;;6.05;;
60464;SDS011;46314;52.392;9.758;2022-12-20T12:52:25;6.45;;;5.57;;
60464;SDS011;46314;52.392;9.758;2022-12-20T12:55:01;6.90;;;5.22;;
60464;SDS011;46314;52.392;9.758;2022-12-20T12:57:27;9.18;;;5.28;;
60464;SDS011;46314;52.392;9.758;2022-12-20T12:59:53;9.60;;;5.25;;
60464;SDS011;46314;52.392;9.758;2022-12-20T13:02:33;7.28;;;5.32;;
60464;SDS011;46314;52.392;9.758;2022-12-20T13:07:57;7.15;;;5.20;;
60464;SDS011;46314;52.392;9.758;2022-12-20T13:13:23;5.72;;;4.75;;
60464;SDS011;46314;52.392;9.758;2022-12-20T13:16:08;9.18;;;6.07;;
60464;SDS011;46314;52.392;9.758;2022-12-20T13:18:38;7.70;;;5.72;;
60464;SDS011;46314;52.392;9.758;2022-12-20T13:21:35;16.80;;;6.50;;
60464;SDS011;46314;52.392;9.758;2022-12-20T13:27:17;7.25;;;6.05;;
60464;SDS011;46314;52.392;9.758;2022-12-20T13:29:52;6.55;;;5.60;;
60464;SDS011;46314;52.392;9.758;2022-12-20T13:35:28;9.30;;;6.65;;
60464;SDS011;46314;52.392;9.758;2022-12-20T13:37:58;13.70;;;9.60;;
60464;SDS011;46314;52.392;9.758;2022-12-20T13:40:30;18.52;;;10.80;;
60464;SDS011;46314;52.392;9.758;2022-12-20T13:43:01;9.43;;;6.85;;
60464;SDS011;46314;52.392;9.758;2022-12-20T13:45:31;9.52;;;6.90;;
60464;SDS011;46314;52.392;9.758;2022-12-20T13:48:00;10.70;;;7.20;;
60464;SDS011;46314;52.392;9.758;2022-12-20T13:50:38;9.80;;;5.18;;
60464;SDS011;46314;52.392;9.758;2022-12-20T13:53:13;6.68;;;5.45;;
60464;SDS011;46314;52.392;9.758;2022-12-20T13:55:42;6.75;;;5.15;;
60464;SDS011;46314;52.392;9.758;2022-12-20T13:58:12;6.07;;;4.45;;
60464;SDS011;46314;52.392;9.758;2022-12-20T14:00:41;6.63;;;4.87;;
60464;SDS011;46314;52.392;9.758;2022-12-20T14:03:13;8.40;;;5.78;;
60464;SDS011;46314;52.392;9.758;2022-12-20T14:05:47;6.47;;;5.03;;
60464;SDS011;46314;52.392;9.758;2022-12-20T14:08:15;9.88;;;5.88;;
60464;SDS011;46314;52.392;9.758;2022-12-20T14:10:45;6.82;;;5.40;;
60464;SDS011;46314;52.392;9.758;2022-12-20T14:13:19;6.82;;;5.60;;
60464;SDS011;46314;52.392;9.758;2022-12-20T14:15:47;7.13;;;5.47;;
60464;SDS011;46314;52.392;9.758;2022-12-20T14:18:17;7.20;;;4.95;;
60464;SDS011;46314;52.392;9.758;2022-12-20T14:20:47;10.43;;;6.07;;
60464;SDS011;46314;52.392;9.758;2022-12-20T14:23:16;8.23;;;6.18;;
60464;SDS011;46314;52.392;9.758;2022-12-20T14:25:47;7.95;;;5.28;;
60464;SDS011;46314;52.392;9.758;2022-12-20T14:28:20;10.23;;;6.22;;
60464;SDS011;46314;52.392;9.758;2022-12-20T14:30:53;7.32;;;5.80;;
60464;SDS011;46314;52.392;9.758;2022-12-20T14:33:23;10.85;;;6.22;;
60464;SDS011;46314;52.392;9.758;2022-12-20T14:35:55;8.90;;;6.45;;
60464;SDS011;46314;52.392;9.758;2022-12-20T14:38:23;9.63;;;5.78;;
60464;SDS011;46314;52.392;9.758;2022-12-20T14:40:54;7.28;;;5.30;;
60464;SDS011;46314;52.392;9.758;2022-12-20T14:43:23;7.28;;;5.75;;
60464;SDS011;46314;52.392;9.758;2022-12-20T14:46:05;8.50;;;5.20;;
60464;SDS011;46314;52.392;9.758;2022-12-20T14:48:33;10.73;;;5.55;;
60464;SDS011;46314;52.392;9.758;2022-12-20T14:51:03;5.60;;;4.85;;
60464;SDS011;46314;52.392;9.758;2022-12-20T14:53:30;6.07;;;5.45;;
60464;SDS011;46314;52.392;9.758;2022-12-20T14:55:56;10.45;;;5.78;;
60464;SDS011;46314;52.392;9.758;2022-12-20T14:58:23;7.10;;;4.93;;
60464;SDS011;46314;52.392;9.758;2022-12-20T15:00:54;9.23;;;4.80;;
60464;SDS011;46314;52.392;9.758;2022-12-20T15:03:22;5.72;;;4.70;;
60464;SDS011;46314;52.392;9.758;2022-12-20T15:05:49;5.50;;;4.38;;
60464;SDS011;46314;52.392;9.758;2022-12-20T15:08:19;6.20;;;4.60;;